createdAt,value
2022-09-05T00:02:48.762Z,76.81
2022-09-05T00:05:21.544Z,77.32
2022-09-05T00:08:08.332Z,76.61
2022-09-05T00:11:40.348Z,77.48
2022-09-05T00:14:13.076Z,76.56
2022-09-05T00:17:14.161Z,77.20
2022-09-05T00:24:22.655Z,76.76
2022-09-05T00:24:42.409Z,76.02
2022-09-05T00:26:33.986Z,76.18
2022-09-05T00:29:44.914Z,75.75
2022-09-05T00:32:42.691Z,76.48
2022-09-05T00:35:26.187Z,75.43
2022-09-05T00:37:55.616Z,75.77
2022-09-05T00:40:33.576Z,75.72
2022-09-05T00:43:17.331Z,75.92
2022-09-05T00:45:55.322Z,76.03
2022-09-05T00:48:46.351Z,75.89
2022-09-05T00:51:40.122Z,76.19
2022-09-05T00:54:41.311Z,76.44
2022-09-05T00:57:43.048Z,76.02
2022-09-05T01:00:36.428Z,75.94
2022-09-05T01:03:28.533Z,76.22
2022-09-05T01:06:16.176Z,75.34
2022-09-05T01:09:07.763Z,74.90
2022-09-05T01:11:42.714Z,75.68
2022-09-05T01:14:39.320Z,75.38
2022-09-05T01:17:16.221Z,75.16
2022-09-05T01:20:18.496Z,74.69
2022-09-05T01:23:06.582Z,74.30
2022-09-05T01:25:55.175Z,74.06
2022-09-05T01:29:14.464Z,73.90
2022-09-05T01:31:38.372Z,73.96
2022-09-05T01:34:38.021Z,73.73
2022-09-05T01:37:34.191Z,73.60
2022-09-05T01:40:27.862Z,73.23
2022-09-05T01:43:05.103Z,73.12
2022-09-05T01:45:56.224Z,72.90
2022-09-05T01:48:50.837Z,72.63
2022-09-05T01:51:31.870Z,72.52
2022-09-05T01:54:33.353Z,72.42
2022-09-05T01:57:19.538Z,71.97
2022-09-05T02:00:13.768Z,71.88
2022-09-05T02:02:57.215Z,71.04
2022-09-05T02:06:33.302Z,70.84
2022-09-05T02:09:18.466Z,70.18
2022-09-05T02:12:05.677Z,69.28
2022-09-05T02:14:58.609Z,68.84
2022-09-05T02:17:50.568Z,68.18
2022-09-05T02:20:48.298Z,68.06
2022-09-05T02:23:41.089Z,67.98
2022-09-05T02:26:24.193Z,68.10
2022-09-05T02:29:29.365Z,68.19
2022-09-05T02:32:09.769Z,68.06
2022-09-05T02:35:02.064Z,68.10
2022-09-05T02:38:38.002Z,67.96
2022-09-05T02:45:07.124Z,67.74
2022-09-05T02:45:14.209Z,67.75
2022-09-05T02:47:05.883Z,66.91
2022-09-05T02:52:39.422Z,67.11
2022-09-05T02:57:27.556Z,67.05
2022-09-05T02:57:37.039Z,66.72
2022-09-05T02:59:12.329Z,66.12
2022-09-05T03:01:52.006Z,65.70
2022-09-05T03:04:43.294Z,66.26
2022-09-05T03:07:28.300Z,66.37
2022-09-05T03:10:13.168Z,66.19
2022-09-05T03:12:50.271Z,66.28
2022-09-05T03:15:22.867Z,66.43
2022-09-05T03:18:20.805Z,66.13
2022-09-05T03:21:18.113Z,65.71
2022-09-05T03:24:19.821Z,64.98
2022-09-05T03:27:11.647Z,64.11
2022-09-05T03:30:09.512Z,63.78
2022-09-05T03:33:22.025Z,63.25
2022-09-05T03:36:14.742Z,62.46
2022-09-05T03:38:51.149Z,61.66
2022-09-05T03:41:40.217Z,60.77
2022-09-05T03:44:21.851Z,60.37
2022-09-05T03:47:16.062Z,60.28
2022-09-05T03:53:22.470Z,59.77
2022-09-05T03:57:15.710Z,59.85
2022-09-05T03:57:26.662Z,59.06
2022-09-05T03:59:40.695Z,58.72
2022-09-05T04:04:35.130Z,58.95
2022-09-05T04:08:10.906Z,58.94
2022-09-05T04:08:15.980Z,59.20
2022-09-05T04:11:00.811Z,58.99
2022-09-05T04:14:23.064Z,58.95
2022-09-05T04:16:54.095Z,58.97
2022-09-05T04:19:30.218Z,59.11
2022-09-05T04:22:10.799Z,58.94
2022-09-05T04:24:57.286Z,58.65
2022-09-05T04:27:55.183Z,58.50
2022-09-05T04:30:39.809Z,58.37
2022-09-05T04:34:00.328Z,58.36
2022-09-05T04:36:36.671Z,58.75
2022-09-05T04:39:19.751Z,58.46
2022-09-05T04:41:57.062Z,58.23
2022-09-05T04:44:36.410Z,58.17
2022-09-05T04:47:17.156Z,57.94
2022-09-05T04:49:58.481Z,57.59
2022-09-05T04:52:48.988Z,58.15
2022-09-05T04:55:46.857Z,58.02
2022-09-05T05:00:22.819Z,58.50
2022-09-05T05:06:03.875Z,58.39
2022-09-05T05:06:12.388Z,57.85
2022-09-05T05:07:42.436Z,57.61
2022-09-05T05:12:56.952Z,56.60
2022-09-05T05:17:55.434Z,56.02
2022-09-05T05:18:12.505Z,54.95
2022-09-05T05:19:48.840Z,54.00
2022-09-05T05:22:34.027Z,53.75
2022-09-05T05:25:03.224Z,52.84
2022-09-05T05:27:48.419Z,52.80
2022-09-05T05:30:28.388Z,52.68
2022-09-05T05:32:58.011Z,52.90
2022-09-05T05:35:38.475Z,52.99
2022-09-05T05:38:41.477Z,52.89
2022-09-05T05:41:24.594Z,53.08
2022-09-05T05:43:54.243Z,52.99
2022-09-05T05:46:40.915Z,53.01
2022-09-05T05:49:46.867Z,53.29
2022-09-05T05:52:58.272Z,52.92
2022-09-05T05:55:53.580Z,53.17
2022-09-05T05:58:58.946Z,53.37
2022-09-05T06:02:03.926Z,53.14
2022-09-05T06:05:23.174Z,53.36
2022-09-05T06:10:31.809Z,52.66
2022-09-05T06:14:49.648Z,52.20
2022-09-05T06:15:34.161Z,52.37
2022-09-05T06:18:31.687Z,52.69
2022-09-05T06:22:09.904Z,52.93
2022-09-05T06:24:04.048Z,53.04
2022-09-05T06:27:05.649Z,53.23
2022-09-05T06:29:58.410Z,53.21
2022-09-05T06:32:56.697Z,52.60
2022-09-05T06:35:43.926Z,52.80
2022-09-05T06:39:01.896Z,52.68
2022-09-05T06:42:42.375Z,52.34
2022-09-05T06:45:28.292Z,52.07
2022-09-05T06:48:44.246Z,51.67
2022-09-05T06:51:45.795Z,51.62
2022-09-05T06:54:33.541Z,50.99
2022-09-05T06:57:46.661Z,50.81
2022-09-05T07:00:39.633Z,50.59
2022-09-05T07:03:29.985Z,50.36
2022-09-05T07:06:08.237Z,49.95
2022-09-05T07:08:54.893Z,49.52
2022-09-05T07:11:41.791Z,49.92
2022-09-05T07:14:32.607Z,50.09
2022-09-05T07:17:31.450Z,49.65
2022-09-05T07:20:16.628Z,49.82
2022-09-05T07:24:00.708Z,49.99
2022-09-05T07:26:20.505Z,50.33
2022-09-05T07:29:06.229Z,50.17
2022-09-05T07:31:40.002Z,50.03
2022-09-05T07:34:21.717Z,49.84
2022-09-05T07:37:14.664Z,49.59
2022-09-05T07:39:56.131Z,50.19
2022-09-05T07:42:39.199Z,50.53
2022-09-05T07:45:21.667Z,50.42
2022-09-05T07:48:00.461Z,49.76
2022-09-05T07:52:19.104Z,49.75
2022-09-05T07:56:49.872Z,49.46
2022-09-05T07:57:00.912Z,49.26
2022-09-05T07:59:00.130Z,48.99
2022-09-05T08:01:28.319Z,48.86
2022-09-05T08:04:00.388Z,48.66
2022-09-05T08:07:25.668Z,48.53
2022-09-05T08:10:06.283Z,48.92
2022-09-05T08:13:22.446Z,49.45
2022-09-05T08:16:04.300Z,49.53
2022-09-05T08:18:24.974Z,49.57
2022-09-05T08:21:15.163Z,49.76
2022-09-05T08:24:24.561Z,49.64
2022-09-05T08:27:16.489Z,49.45
2022-09-05T08:30:24.396Z,49.04
2022-09-05T08:32:51.532Z,48.47
2022-09-05T08:36:01.575Z,48.45
2022-09-05T08:38:37.437Z,48.94
2022-09-05T08:41:50.299Z,49.44
2022-09-05T08:46:43.265Z,49.80
2022-09-05T08:48:19.074Z,50.49
2022-09-05T08:51:11.135Z,51.20
2022-09-05T08:54:02.850Z,51.30
2022-09-05T08:56:50.884Z,51.35
2022-09-05T08:59:32.714Z,51.57
2022-09-05T09:02:47.547Z,51.52
2022-09-05T09:06:13.670Z,51.50
2022-09-05T09:09:05.300Z,51.46
2022-09-05T09:11:41.260Z,51.39
2022-09-05T09:14:33.249Z,51.43
2022-09-05T09:17:22.988Z,50.89
2022-09-05T09:19:54.195Z,50.43
2022-09-05T09:22:45.146Z,50.39
2022-09-05T09:25:49.259Z,51.14
2022-09-05T09:29:03.555Z,51.02
2022-09-05T09:31:46.842Z,51.00
2022-09-05T09:34:19.086Z,50.51
2022-09-05T09:37:09.065Z,49.07
2022-09-05T09:39:39.677Z,49.23
2022-09-05T09:42:33.181Z,49.25
2022-09-05T09:45:27.825Z,49.29
2022-09-05T09:48:11.151Z,49.06
2022-09-05T09:50:41.940Z,49.17
2022-09-05T09:53:41.015Z,48.76
2022-09-05T09:56:47.777Z,47.83
2022-09-05T09:59:34.253Z,47.35
2022-09-05T10:04:19.019Z,47.73
2022-09-05T10:10:50.965Z,48.00
2022-09-05T10:10:57.755Z,47.85
2022-09-05T10:12:21.545Z,48.27
2022-09-05T10:15:30.187Z,48.51
2022-09-05T10:18:31.518Z,49.06
2022-09-05T10:21:23.716Z,49.70
2022-09-05T10:24:09.754Z,49.73
2022-09-05T10:27:02.200Z,49.71
2022-09-05T10:29:52.853Z,49.65
2022-09-05T10:34:53.455Z,50.01
2022-09-05T10:35:37.705Z,50.57
2022-09-05T10:38:26.020Z,50.65
2022-09-05T10:41:21.728Z,50.40
2022-09-05T10:44:06.901Z,50.88
2022-09-05T10:46:56.818Z,51.38
2022-09-05T10:49:30.134Z,51.67
2022-09-05T10:52:30.603Z,50.69
2022-09-05T10:55:13.602Z,50.67
2022-09-05T10:58:07.645Z,50.96
2022-09-05T11:02:26.703Z,51.37
2022-09-05T11:04:13.389Z,51.38
2022-09-05T11:06:53.248Z,51.27
2022-09-05T11:09:39.640Z,51.32
2022-09-05T11:12:31.216Z,51.88
2022-09-05T11:15:04.576Z,51.92
2022-09-05T11:18:01.565Z,52.43
2022-09-05T11:20:41.449Z,53.15
2022-09-05T11:23:20.116Z,53.06
2022-09-05T11:26:12.458Z,53.04
2022-09-05T11:28:59.835Z,53.12
2022-09-05T11:33:53.470Z,53.14
2022-09-05T11:39:45.501Z,53.30
2022-09-05T11:39:53.550Z,53.22
2022-09-05T11:41:45.621Z,53.63
2022-09-05T11:44:26.422Z,54.23
2022-09-05T11:46:58.318Z,54.36
2022-09-05T11:50:19.086Z,54.42
2022-09-05T11:53:18.401Z,54.44
2022-09-05T11:56:08.030Z,54.01
2022-09-05T11:59:08.524Z,53.57
2022-09-05T12:02:08.352Z,53.82
2022-09-05T12:05:48.700Z,54.06
2022-09-05T12:08:18.688Z,54.26
2022-09-05T12:11:14.796Z,55.38
2022-09-05T12:13:49.015Z,55.52
2022-09-05T12:16:43.091Z,55.64
2022-09-05T12:19:23.634Z,56.61
2022-09-05T12:22:09.063Z,56.63
2022-09-05T12:25:25.620Z,56.85
2022-09-05T12:29:27.658Z,56.93
2022-09-05T12:31:08.509Z,56.96
2022-09-05T12:36:07.313Z,57.34
2022-09-05T12:40:43.669Z,57.73
2022-09-05T12:41:35.134Z,58.03
2022-09-05T12:44:29.920Z,58.47
2022-09-05T12:45:50.596Z,58.63
2022-09-05T12:48:40.634Z,58.75
2022-09-05T12:51:45.994Z,58.25
2022-09-05T12:54:33.697Z,58.70
2022-09-05T13:03:00.827Z,59.61
2022-09-05T13:03:09.169Z,59.92
2022-09-05T13:03:30.161Z,60.35
2022-09-05T13:06:04.281Z,60.01
2022-09-05T13:08:59.426Z,60.75
2022-09-05T13:14:52.973Z,60.90
2022-09-05T13:14:56.209Z,61.59
2022-09-05T13:17:16.393Z,61.78
2022-09-05T13:19:51.968Z,62.04
2022-09-05T13:22:24.512Z,62.42
2022-09-05T13:25:09.044Z,63.07
2022-09-05T13:27:47.797Z,63.59
2022-09-05T13:33:20.566Z,63.37
2022-09-05T13:38:04.296Z,64.44
2022-09-05T13:38:08.165Z,63.75
2022-09-05T13:39:18.770Z,64.99
2022-09-05T13:42:02.088Z,64.93
2022-09-05T13:44:37.994Z,65.17
2022-09-05T13:47:38.900Z,65.80
2022-09-05T13:50:14.453Z,65.59
2022-09-05T13:52:47.578Z,66.12
2022-09-05T13:55:18.506Z,66.38
2022-09-05T13:58:12.383Z,66.29
2022-09-05T14:00:43.953Z,66.67
2022-09-05T14:03:44.695Z,66.81
2022-09-05T14:06:45.794Z,66.98
2022-09-05T14:09:59.946Z,67.65
2022-09-05T14:12:49.428Z,67.28
2022-09-05T14:15:25.193Z,67.82
2022-09-05T14:18:20.265Z,68.04
2022-09-05T14:21:21.165Z,67.88
2022-09-05T14:24:09.585Z,69.09
2022-09-05T14:26:52.742Z,68.74
2022-09-05T14:29:27.027Z,69.03
2022-09-05T14:37:35.215Z,69.69
2022-09-05T14:37:54.601Z,69.64
2022-09-05T14:38:51.292Z,69.88
2022-09-05T14:41:31.839Z,69.95
2022-09-05T14:44:05.891Z,70.08
2022-09-05T14:47:02.572Z,70.57
2022-09-05T14:50:21.269Z,70.64
2022-09-05T14:57:23.937Z,70.93
2022-09-05T15:02:48.384Z,71.00
2022-09-05T15:02:50.650Z,71.07
2022-09-05T15:05:12.156Z,71.07
2022-09-05T15:07:46.771Z,71.40
2022-09-05T15:12:18.428Z,71.66
2022-09-05T15:13:14.125Z,71.50
2022-09-05T15:16:02.075Z,72.04
2022-09-05T15:18:45.992Z,72.03
2022-09-05T15:21:35.640Z,72.00
2022-09-05T15:24:30.948Z,72.50
2022-09-05T15:27:01.657Z,72.24
2022-09-05T15:29:35.597Z,72.53
2022-09-05T15:32:16.132Z,72.65
2022-09-05T15:34:44.995Z,72.41
2022-09-05T15:37:29.762Z,72.98
2022-09-05T15:40:02.078Z,72.64
2022-09-05T15:42:38.195Z,73.02
2022-09-05T15:45:11.378Z,73.17
2022-09-05T15:47:47.327Z,73.45
2022-09-05T15:50:23.610Z,73.40
2022-09-05T15:52:55.788Z,73.74
2022-09-05T15:55:26.695Z,73.58
2022-09-05T15:58:08.057Z,73.63
2022-09-05T16:00:51.915Z,73.65
2022-09-05T16:04:07.043Z,73.70
2022-09-05T16:10:27.108Z,73.68
2022-09-05T16:10:42.605Z,74.14
2022-09-05T16:12:14.422Z,73.86
2022-09-05T16:15:20.383Z,73.96
2022-09-05T16:23:14.958Z,73.74
2022-09-05T16:23:32.503Z,73.56
2022-09-05T16:23:52.102Z,74.21
2022-09-05T16:26:26.366Z,74.14
2022-09-05T16:29:12.085Z,74.24
2022-09-05T16:32:08.171Z,74.35
2022-09-05T16:34:53.164Z,74.45
2022-09-05T16:37:31.067Z,74.42
2022-09-05T16:40:19.848Z,74.61
2022-09-05T16:42:50.701Z,74.62
2022-09-05T16:46:05.175Z,75.03
2022-09-05T16:48:57.832Z,74.79
2022-09-05T16:51:36.560Z,74.80
2022-09-05T16:54:32.601Z,74.88
2022-09-05T16:57:12.500Z,74.93
2022-09-05T16:59:44.259Z,75.20
2022-09-05T17:02:40.476Z,74.91
2022-09-05T17:05:23.620Z,74.95
2022-09-05T17:08:18.458Z,75.38
2022-09-05T17:10:58.251Z,74.90
2022-09-05T17:13:53.564Z,75.27
2022-09-05T17:16:53.071Z,75.34
2022-09-05T17:19:25.434Z,75.34
2022-09-05T17:24:55.343Z,75.67
2022-09-05T17:29:17.140Z,75.35
2022-09-05T17:29:34.292Z,75.58
2022-09-05T17:31:59.497Z,75.51
2022-09-05T17:34:52.054Z,75.43
2022-09-05T17:37:54.726Z,75.55
2022-09-05T17:41:00.325Z,75.99
2022-09-05T17:43:39.412Z,76.02
2022-09-05T17:46:30.310Z,76.00
2022-09-05T17:49:19.719Z,75.91
2022-09-05T17:51:54.210Z,76.10
2022-09-05T17:54:31.513Z,76.19
2022-09-05T17:57:30.212Z,76.23
2022-09-05T18:00:22.180Z,75.95
2022-09-05T18:02:58.122Z,76.14
2022-09-05T18:06:01.591Z,76.42
2022-09-05T18:08:52.896Z,76.67
2022-09-05T18:11:44.898Z,76.67
2022-09-05T18:14:25.090Z,76.36
2022-09-05T18:17:37.227Z,76.80
2022-09-05T18:19:44.077Z,76.66
2022-09-05T18:22:22.341Z,76.79
2022-09-05T18:28:20.235Z,77.01
2022-09-05T18:30:53.113Z,77.03
2022-09-05T18:33:53.727Z,77.19
2022-09-05T18:36:25.911Z,77.05
2022-09-05T18:39:26.942Z,77.27
2022-09-05T18:42:26.111Z,77.11
2022-09-05T18:45:15.337Z,77.03
2022-09-05T18:48:01.539Z,77.18
2022-09-05T18:50:34.825Z,77.08
2022-09-05T18:53:10.616Z,77.25
2022-09-05T18:56:22.026Z,77.34
2022-09-05T18:59:09.971Z,77.37
2022-09-05T19:01:59.554Z,77.13
2022-09-05T19:04:41.467Z,77.21
2022-09-05T19:07:24.094Z,77.20
2022-09-05T19:10:03.590Z,77.33
2022-09-05T19:12:56.323Z,77.32
2022-09-05T19:15:31.478Z,77.39
2022-09-05T19:18:25.789Z,77.47
2022-09-05T19:21:04.723Z,77.45
2022-09-05T19:23:58.974Z,77.55
2022-09-05T19:26:31.961Z,77.42
2022-09-05T19:36:49.970Z,77.44
2022-09-05T19:37:07.768Z,77.58
2022-09-05T19:37:15.601Z,77.68
2022-09-05T19:37:48.969Z,77.76
2022-09-05T19:47:34.630Z,77.99
2022-09-05T19:47:36.395Z,77.87
2022-09-05T19:47:43.623Z,77.79
2022-09-05T19:49:14.217Z,77.91
2022-09-05T19:51:43.311Z,78.05
2022-09-05T19:54:30.432Z,77.99
2022-09-05T19:57:02.706Z,78.09
2022-09-05T19:59:44.612Z,78.32
2022-09-05T20:02:23.487Z,77.81
2022-09-05T20:04:57.537Z,77.97
2022-09-05T20:07:33.669Z,77.81
2022-09-05T20:10:06.447Z,78.01
2022-09-05T20:12:39.993Z,77.90
2022-09-05T20:15:35.854Z,77.80
2022-09-05T20:18:35.876Z,78.10
2022-09-05T20:21:15.466Z,78.19
2022-09-05T20:23:50.004Z,78.20
2022-09-05T20:26:22.993Z,78.32
2022-09-05T20:29:00.734Z,78.36
2022-09-05T20:31:33.787Z,78.37
2022-09-05T20:34:25.960Z,78.38
2022-09-05T20:43:19.616Z,78.33
2022-09-05T20:43:29.306Z,78.85
2022-09-05T20:43:31.960Z,78.62
2022-09-05T20:46:16.092Z,78.81
2022-09-05T20:54:13.486Z,78.77
2022-09-05T20:54:14.690Z,78.64
2022-09-05T20:54:45.527Z,78.65
2022-09-05T20:57:28.921Z,78.78
2022-09-05T21:00:06.044Z,79.04
2022-09-05T21:02:34.770Z,78.96
2022-09-05T21:05:20.719Z,79.19
2022-09-05T21:08:03.787Z,79.17
2022-09-05T21:11:00.140Z,78.96
2022-09-05T21:13:32.465Z,79.25
2022-09-05T21:16:01.360Z,79.20
2022-09-05T21:18:37.058Z,79.28
2022-09-05T21:21:29.025Z,79.58
2022-09-05T21:24:17.766Z,79.41
2022-09-05T21:26:49.766Z,79.30
2022-09-05T21:29:33.287Z,79.40
2022-09-05T21:32:10.764Z,79.70
2022-09-05T21:34:54.531Z,79.66
2022-09-05T21:37:23.067Z,79.97
2022-09-05T21:39:58.412Z,80.40
2022-09-05T21:43:37.492Z,79.98
2022-09-05T21:47:39.163Z,80.44
2022-09-05T21:48:16.241Z,80.14
2022-09-05T21:50:52.089Z,80.21
2022-09-05T21:57:00.418Z,80.50
2022-09-05T21:59:20.446Z,80.63
2022-09-05T21:59:46.378Z,80.63
2022-09-05T22:02:17.704Z,80.66
2022-09-05T22:04:50.427Z,80.87
2022-09-05T22:07:21.701Z,80.55
2022-09-05T22:10:04.829Z,80.95
2022-09-05T22:12:39.429Z,81.03
2022-09-05T22:15:28.022Z,81.27
2022-09-05T22:18:16.989Z,80.94
2022-09-05T22:21:31.732Z,81.05
2022-09-05T22:23:47.639Z,80.97
2022-09-05T22:26:21.221Z,81.53
2022-09-05T22:28:52.096Z,81.36
2022-09-05T22:31:20.963Z,81.45
2022-09-05T22:33:51.222Z,81.50
2022-09-05T22:36:20.323Z,81.88
2022-09-05T22:38:48.629Z,81.80
2022-09-05T22:41:18.161Z,81.85
2022-09-05T22:43:58.369Z,81.70
2022-09-05T22:46:26.707Z,82.06
2022-09-05T22:48:54.714Z,82.07
2022-09-05T22:51:22.720Z,82.04
2022-09-05T22:53:56.049Z,81.87
2022-09-05T22:56:50.385Z,82.16
2022-09-05T22:59:20.025Z,82.35
2022-09-05T23:01:48.207Z,82.33
2022-09-05T23:04:16.249Z,82.29
2022-09-05T23:06:44.603Z,82.48
2022-09-05T23:09:12.712Z,82.26
2022-09-05T23:11:40.851Z,82.61
2022-09-05T23:14:10.332Z,82.61
2022-09-05T23:16:38.382Z,82.55
2022-09-05T23:19:06.475Z,82.35
2022-09-05T23:21:35.412Z,82.82
2022-09-05T23:24:03.618Z,82.69
2022-09-05T23:26:31.712Z,82.80
2022-09-05T23:29:01.177Z,82.81
2022-09-05T23:31:29.283Z,82.69
2022-09-05T23:33:58.987Z,83.02
2022-09-05T23:36:27.289Z,82.85
2022-09-05T23:38:55.312Z,82.81
2022-09-05T23:41:23.294Z,83.20
2022-09-05T23:43:51.546Z,82.95
2022-09-05T23:46:19.591Z,82.93
2022-09-05T23:48:47.724Z,82.86
2022-09-05T23:51:15.972Z,82.99
2022-09-05T23:53:44.152Z,83.14
2022-09-05T23:56:12.346Z,83.12
2022-09-05T23:58:42.029Z,83.08
